This is the latest recevied weather packets stored in our database for station/object SP9MLI-1. If no packets are shown the sender has not sent any weather packets the latest 10 day(s).
| Time | Temp. | Humidity | Pressure | Rain* | Wind** | Luminosity | Snow |
|---|---|---|---|---|---|---|---|
| 1777509492 | -2.78° C | 85% | 1026.9 hPa | 0 mm | - | - | - |
| 1777508593 | -2.78° C | 87% | 1026.9 hPa | 0 mm | - | - | - |
| 1777507693 | -2.78° C | 86% | 1026.9 hPa | 0 mm | - | - | - |
| 1777506793 | -2.78° C | 86% | 1026.9 hPa | 0 mm | - | - | - |
| 1777505893 | -2.78° C | 87% | 1026.9 hPa | 0 mm | - | - | - |
| 1777504993 | -2.78° C | 86% | 1027.2 hPa | 0 mm | - | - | - |
| 1777504093 | -2.78° C | 85% | 1027.2 hPa | 0 mm | - | - | - |
| 1777503193 | -2.22° C | 85% | 1026.9 hPa | 0 mm | - | - | - |
| 1777502293 | -2.22° C | 83% | 1027.2 hPa | 0 mm | - | - | - |
| 1777501393 | -2.22° C | 83% | 1027.2 hPa | 0 mm | - | - | - |
| 1777500493 | -1.67° C | 83% | 1027.2 hPa | 0 mm | - | - | - |
| 1777499593 | -1.67° C | 82% | 1026.9 hPa | 0 mm | - | - | - |
| 1777498693 | -1.67° C | 81% | 1026.9 hPa | 0 mm | - | - | - |
| 1777497793 | -1.11° C | 81% | 1027.2 hPa | 0 mm | - | - | - |
| 1777496893 | -1.11° C | 80% | 1026.9 hPa | 0 mm | - | - | - |
| 1777495995 | -1.11° C | 79% | 1027.2 hPa | 0 mm | - | - | - |
| 1777495094 | -0.56° C | 77% | 1027.2 hPa | 0 mm | - | - | - |
| 1777494193 | -0.56° C | 77% | 1027.2 hPa | 0 mm | - | - | - |
| 1777493293 | 2.78° C | 66% | 1027.9 hPa | 0 mm | - | - | - |
| 1777492393 | 2.78° C | 66% | 1027.9 hPa | 0 mm | - | - | - |
| 1777491493 | 2.78° C | 66% | 1027.9 hPa | 0 mm | - | - | - |
| 1777490593 | 2.78° C | 66% | 1027.9 hPa | 0 mm | - | - | - |
| 1777489693 | 3.33° C | 65% | 1028.2 hPa | 0 mm | - | - | - |
| 1777488793 | 3.89° C | 62% | 1028.2 hPa | 0 mm | - | - | - |
| 1777487892 | 4.44° C | 61% | 1028.2 hPa | 0 mm | - | - | - |
* Rain latest hour (hover to see other rain measurements)
** Current wind speed in m/s (hover to see current wind gust speed)